Terminal Aerodrome Forecast
Issued by NWS Quad Cities IA IL

Home | Current Version | Previous Version | Text Only | Print | Product List | Glossary On
Versions: 1 2 3 4 5 6 7 8 9 10 11 12 13 14 15 16 17 18 19 20 21 22
000
FTUS43 KDVN 041723
TAFDBQ
TAF
KDBQ 041723Z 0418/0518 15007KT 1/2SM SN FG OVC005
     FM042000 18005KT 2SM -SN BR OVC003
     FM050000 24006KT 5SM BR OVC003
     FM050300 VRB05KT 1/2SM FG OVC003
     FM051600 17007KT 3SM BR BKN003=

USA.gov is the U.S. government's official web portal to all federal, state and local government web resources and services.